sensor_id;sensor_type;location;lat;lon;timestamp;P1;durP1;ratioP1;P2;durP2;ratioP2
8580;SDS011;4328;48.622;9.230;2024-02-26T00:01:33;11.20;;;9.37;;
8580;SDS011;4328;48.622;9.230;2024-02-26T00:04:00;18.53;;;12.23;;
8580;SDS011;4328;48.622;9.230;2024-02-26T00:06:27;17.20;;;11.33;;
8580;SDS011;4328;48.622;9.230;2024-02-26T00:08:54;18.37;;;11.53;;
8580;SDS011;4328;48.622;9.230;2024-02-26T00:11:20;9.50;;;8.30;;
8580;SDS011;4328;48.622;9.230;2024-02-26T00:13:47;15.73;;;9.07;;
8580;SDS011;4328;48.622;9.230;2024-02-26T00:16:14;8.07;;;5.80;;
8580;SDS011;4328;48.622;9.230;2024-02-26T00:18:41;15.90;;;7.53;;
8580;SDS011;4328;48.622;9.230;2024-02-26T00:21:08;14.93;;;7.97;;
8580;SDS011;4328;48.622;9.230;2024-02-26T00:23:34;17.17;;;9.53;;
8580;SDS011;4328;48.622;9.230;2024-02-26T00:26:01;11.10;;;9.37;;
8580;SDS011;4328;48.622;9.230;2024-02-26T00:28:28;13.33;;;7.67;;
8580;SDS011;4328;48.622;9.230;2024-02-26T00:30:55;14.67;;;7.80;;
8580;SDS011;4328;48.622;9.230;2024-02-26T00:33:22;14.77;;;8.27;;
8580;SDS011;4328;48.622;9.230;2024-02-26T00:35:50;17.13;;;7.20;;
8580;SDS011;4328;48.622;9.230;2024-02-26T00:38:16;15.23;;;8.60;;
8580;SDS011;4328;48.622;9.230;2024-02-26T00:40:43;16.13;;;6.30;;
8580;SDS011;4328;48.622;9.230;2024-02-26T00:43:10;13.60;;;6.17;;
8580;SDS011;4328;48.622;9.230;2024-02-26T00:45:36;15.17;;;6.50;;
8580;SDS011;4328;48.622;9.230;2024-02-26T00:48:03;10.47;;;5.80;;
8580;SDS011;4328;48.622;9.230;2024-02-26T00:50:30;14.70;;;5.60;;
8580;SDS011;4328;48.622;9.230;2024-02-26T00:52:58;16.67;;;5.93;;
8580;SDS011;4328;48.622;9.230;2024-02-26T00:55:24;6.63;;;3.70;;
8580;SDS011;4328;48.622;9.230;2024-02-26T00:57:51;16.07;;;6.03;;
8580;SDS011;4328;48.622;9.230;2024-02-26T01:00:18;12.73;;;5.00;;
8580;SDS011;4328;48.622;9.230;2024-02-26T01:02:45;11.80;;;5.90;;
8580;SDS011;4328;48.622;9.230;2024-02-26T01:05:12;13.87;;;5.97;;
8580;SDS011;4328;48.622;9.230;2024-02-26T01:07:39;12.40;;;6.67;;
8580;SDS011;4328;48.622;9.230;2024-02-26T01:10:07;12.63;;;6.57;;
8580;SDS011;4328;48.622;9.230;2024-02-26T01:12:34;13.03;;;8.43;;
8580;SDS011;4328;48.622;9.230;2024-02-26T01:15:01;11.83;;;7.30;;
8580;SDS011;4328;48.622;9.230;2024-02-26T01:17:28;18.43;;;10.33;;
8580;SDS011;4328;48.622;9.230;2024-02-26T01:19:55;17.30;;;10.17;;
8580;SDS011;4328;48.622;9.230;2024-02-26T01:22:21;15.87;;;8.83;;
8580;SDS011;4328;48.622;9.230;2024-02-26T01:24:48;20.33;;;9.33;;
8580;SDS011;4328;48.622;9.230;2024-02-26T01:27:16;12.17;;;7.13;;
8580;SDS011;4328;48.622;9.230;2024-02-26T01:29:43;17.67;;;7.53;;
8580;SDS011;4328;48.622;9.230;2024-02-26T01:32:09;32.97;;;11.53;;
8580;SDS011;4328;48.622;9.230;2024-02-26T01:34:36;13.23;;;6.13;;
8580;SDS011;4328;48.622;9.230;2024-02-26T01:37:03;13.43;;;7.30;;
8580;SDS011;4328;48.622;9.230;2024-02-26T01:39:29;14.60;;;6.97;;
8580;SDS011;4328;48.622;9.230;2024-02-26T01:41:56;13.37;;;6.57;;
8580;SDS011;4328;48.622;9.230;2024-02-26T01:44:24;16.20;;;8.67;;
8580;SDS011;4328;48.622;9.230;2024-02-26T01:46:52;17.93;;;10.53;;
8580;SDS011;4328;48.622;9.230;2024-02-26T01:49:20;15.87;;;11.57;;
8580;SDS011;4328;48.622;9.230;2024-02-26T01:51:46;14.73;;;10.30;;
8580;SDS011;4328;48.622;9.230;2024-02-26T01:54:13;14.77;;;10.77;;
8580;SDS011;4328;48.622;9.230;2024-02-26T01:56:40;17.07;;;11.27;;
8580;SDS011;4328;48.622;9.230;2024-02-26T01:59:07;16.90;;;12.63;;
8580;SDS011;4328;48.622;9.230;2024-02-26T02:01:36;18.43;;;9.37;;
8580;SDS011;4328;48.622;9.230;2024-02-26T02:04:05;14.37;;;10.17;;
8580;SDS011;4328;48.622;9.230;2024-02-26T02:06:31;16.60;;;10.37;;
8580;SDS011;4328;48.622;9.230;2024-02-26T02:08:58;17.63;;;9.93;;
8580;SDS011;4328;48.622;9.230;2024-02-26T02:11:31;16.63;;;11.80;;
8580;SDS011;4328;48.622;9.230;2024-02-26T02:13:58;12.10;;;9.00;;
8580;SDS011;4328;48.622;9.230;2024-02-26T02:16:25;13.37;;;11.30;;
8580;SDS011;4328;48.622;9.230;2024-02-26T02:18:53;13.40;;;12.00;;
8580;SDS011;4328;48.622;9.230;2024-02-26T02:21:21;12.67;;;9.10;;
8580;SDS011;4328;48.622;9.230;2024-02-26T02:23:47;13.53;;;10.27;;
8580;SDS011;4328;48.622;9.230;2024-02-26T02:26:14;11.60;;;8.77;;
8580;SDS011;4328;48.622;9.230;2024-02-26T02:28:41;13.77;;;7.83;;
8580;SDS011;4328;48.622;9.230;2024-02-26T02:31:08;13.23;;;8.33;;
8580;SDS011;4328;48.622;9.230;2024-02-26T02:33:35;15.13;;;8.40;;
8580;SDS011;4328;48.622;9.230;2024-02-26T02:36:02;11.87;;;8.00;;
8580;SDS011;4328;48.622;9.230;2024-02-26T02:38:30;12.13;;;9.33;;
8580;SDS011;4328;48.622;9.230;2024-02-26T02:40:59;7.90;;;7.13;;
8580;SDS011;4328;48.622;9.230;2024-02-26T02:43:25;11.77;;;9.00;;
8580;SDS011;4328;48.622;9.230;2024-02-26T02:45:52;12.00;;;7.97;;
8580;SDS011;4328;48.622;9.230;2024-02-26T02:48:18;14.13;;;8.33;;
8580;SDS011;4328;48.622;9.230;2024-02-26T02:50:45;15.67;;;10.57;;
8580;SDS011;4328;48.622;9.230;2024-02-26T02:53:12;14.20;;;9.17;;
8580;SDS011;4328;48.622;9.230;2024-02-26T02:55:39;30.77;;;19.20;;
8580;SDS011;4328;48.622;9.230;2024-02-26T02:58:06;18.13;;;12.50;;
8580;SDS011;4328;48.622;9.230;2024-02-26T03:00:32;10.70;;;7.93;;
8580;SDS011;4328;48.622;9.230;2024-02-26T03:02:59;11.03;;;7.23;;
8580;SDS011;4328;48.622;9.230;2024-02-26T03:05:26;10.73;;;7.23;;
8580;SDS011;4328;48.622;9.230;2024-02-26T03:07:52;13.80;;;8.70;;
8580;SDS011;4328;48.622;9.230;2024-02-26T03:10:19;13.90;;;7.73;;
8580;SDS011;4328;48.622;9.230;2024-02-26T03:12:48;13.63;;;7.20;;
8580;SDS011;4328;48.622;9.230;2024-02-26T03:15:15;14.70;;;8.77;;
8580;SDS011;4328;48.622;9.230;2024-02-26T03:17:42;10.47;;;6.77;;
8580;SDS011;4328;48.622;9.230;2024-02-26T03:20:09;18.10;;;14.53;;
8580;SDS011;4328;48.622;9.230;2024-02-26T03:22:38;16.43;;;9.83;;
8580;SDS011;4328;48.622;9.230;2024-02-26T03:25:05;13.70;;;7.10;;
8580;SDS011;4328;48.622;9.230;2024-02-26T03:27:32;7.03;;;6.27;;
8580;SDS011;4328;48.622;9.230;2024-02-26T03:30:00;15.40;;;7.53;;
8580;SDS011;4328;48.622;9.230;2024-02-26T03:32:26;17.20;;;8.60;;
8580;SDS011;4328;48.622;9.230;2024-02-26T03:34:53;13.67;;;8.30;;
8580;SDS011;4328;48.622;9.230;2024-02-26T03:37:20;14.03;;;8.27;;
8580;SDS011;4328;48.622;9.230;2024-02-26T03:39:47;18.23;;;11.37;;
8580;SDS011;4328;48.622;9.230;2024-02-26T03:42:13;15.30;;;9.67;;
8580;SDS011;4328;48.622;9.230;2024-02-26T03:44:41;13.10;;;9.20;;
8580;SDS011;4328;48.622;9.230;2024-02-26T03:47:09;7.50;;;6.90;;
8580;SDS011;4328;48.622;9.230;2024-02-26T03:49:36;14.80;;;7.77;;
8580;SDS011;4328;48.622;9.230;2024-02-26T03:52:02;13.60;;;8.00;;
8580;SDS011;4328;48.622;9.230;2024-02-26T03:54:29;8.30;;;7.40;;
8580;SDS011;4328;48.622;9.230;2024-02-26T03:56:56;15.17;;;9.07;;
8580;SDS011;4328;48.622;9.230;2024-02-26T03:59:22;12.20;;;7.77;;
8580;SDS011;4328;48.622;9.230;2024-02-26T04:01:50;15.27;;;8.63;;
8580;SDS011;4328;48.622;9.230;2024-02-26T04:04:18;12.03;;;8.20;;
8580;SDS011;4328;48.622;9.230;2024-02-26T04:06:45;8.13;;;7.63;;
8580;SDS011;4328;48.622;9.230;2024-02-26T04:09:12;19.33;;;11.43;;
8580;SDS011;4328;48.622;9.230;2024-02-26T04:11:39;16.67;;;11.23;;
8580;SDS011;4328;48.622;9.230;2024-02-26T04:14:06;16.23;;;10.80;;
8580;SDS011;4328;48.622;9.230;2024-02-26T04:16:33;15.27;;;13.33;;
8580;SDS011;4328;48.622;9.230;2024-02-26T04:19:00;12.13;;;9.07;;
8580;SDS011;4328;48.622;9.230;2024-02-26T04:21:28;13.37;;;11.93;;
8580;SDS011;4328;48.622;9.230;2024-02-26T04:23:55;12.00;;;8.50;;
8580;SDS011;4328;48.622;9.230;2024-02-26T04:26:21;11.37;;;10.17;;
8580;SDS011;4328;48.622;9.230;2024-02-26T04:28:48;11.97;;;10.27;;
8580;SDS011;4328;48.622;9.230;2024-02-26T04:31:14;13.73;;;8.97;;
8580;SDS011;4328;48.622;9.230;2024-02-26T04:33:41;15.30;;;10.83;;
8580;SDS011;4328;48.622;9.230;2024-02-26T04:36:12;14.10;;;9.83;;
8580;SDS011;4328;48.622;9.230;2024-02-26T04:38:40;14.53;;;9.87;;
8580;SDS011;4328;48.622;9.230;2024-02-26T04:41:07;15.43;;;10.03;;
8580;SDS011;4328;48.622;9.230;2024-02-26T04:43:33;13.17;;;8.40;;
8580;SDS011;4328;48.622;9.230;2024-02-26T04:46:01;12.27;;;9.63;;
8580;SDS011;4328;48.622;9.230;2024-02-26T04:48:28;8.97;;;8.07;;
8580;SDS011;4328;48.622;9.230;2024-02-26T04:50:54;13.10;;;8.30;;
8580;SDS011;4328;48.622;9.230;2024-02-26T04:53:21;15.87;;;9.37;;
8580;SDS011;4328;48.622;9.230;2024-02-26T04:55:49;14.63;;;8.00;;
8580;SDS011;4328;48.622;9.230;2024-02-26T04:58:15;19.23;;;9.07;;
8580;SDS011;4328;48.622;9.230;2024-02-26T05:00:42;16.50;;;9.33;;
8580;SDS011;4328;48.622;9.230;2024-02-26T05:03:08;9.70;;;8.70;;
8580;SDS011;4328;48.622;9.230;2024-02-26T05:05:38;12.47;;;7.90;;
8580;SDS011;4328;48.622;9.230;2024-02-26T05:08:04;11.57;;;7.77;;
8580;SDS011;4328;48.622;9.230;2024-02-26T05:10:32;12.20;;;7.80;;
8580;SDS011;4328;48.622;9.230;2024-02-26T05:13:01;15.80;;;8.23;;
8580;SDS011;4328;48.622;9.230;2024-02-26T05:15:27;16.77;;;9.40;;
8580;SDS011;4328;48.622;9.230;2024-02-26T05:17:54;13.47;;;7.83;;
8580;SDS011;4328;48.622;9.230;2024-02-26T05:20:20;15.57;;;7.97;;
8580;SDS011;4328;48.622;9.230;2024-02-26T05:22:47;15.13;;;8.10;;
8580;SDS011;4328;48.622;9.230;2024-02-26T05:25:15;10.87;;;7.73;;
8580;SDS011;4328;48.622;9.230;2024-02-26T05:27:42;13.17;;;7.40;;
8580;SDS011;4328;48.622;9.230;2024-02-26T05:30:11;23.50;;;13.23;;
8580;SDS011;4328;48.622;9.230;2024-02-26T05:32:38;17.00;;;8.90;;
8580;SDS011;4328;48.622;9.230;2024-02-26T05:35:05;13.97;;;7.83;;
8580;SDS011;4328;48.622;9.230;2024-02-26T05:37:32;13.53;;;8.77;;
8580;SDS011;4328;48.622;9.230;2024-02-26T05:39:59;12.90;;;6.77;;
8580;SDS011;4328;48.622;9.230;2024-02-26T05:42:25;15.47;;;8.67;;
8580;SDS011;4328;48.622;9.230;2024-02-26T05:44:52;14.07;;;8.50;;
8580;SDS011;4328;48.622;9.230;2024-02-26T05:47:20;12.57;;;8.20;;
8580;SDS011;4328;48.622;9.230;2024-02-26T05:49:46;11.30;;;8.00;;
8580;SDS011;4328;48.622;9.230;2024-02-26T05:52:14;17.60;;;11.43;;
8580;SDS011;4328;48.622;9.230;2024-02-26T05:54:40;16.93;;;10.83;;
8580;SDS011;4328;48.622;9.230;2024-02-26T05:57:07;11.10;;;7.80;;
8580;SDS011;4328;48.622;9.230;2024-02-26T05:59:33;14.60;;;8.10;;
8580;SDS011;4328;48.622;9.230;2024-02-26T06:02:00;13.33;;;6.10;;
8580;SDS011;4328;48.622;9.230;2024-02-26T06:04:28;11.00;;;5.93;;
8580;SDS011;4328;48.622;9.230;2024-02-26T06:06:54;14.70;;;7.50;;
8580;SDS011;4328;48.622;9.230;2024-02-26T06:09:22;13.73;;;6.07;;
8580;SDS011;4328;48.622;9.230;2024-02-26T06:11:49;13.60;;;7.07;;
8580;SDS011;4328;48.622;9.230;2024-02-26T06:14:15;15.07;;;6.20;;
8580;SDS011;4328;48.622;9.230;2024-02-26T06:16:43;13.90;;;6.53;;
8580;SDS011;4328;48.622;9.230;2024-02-26T06:19:09;17.43;;;8.17;;
8580;SDS011;4328;48.622;9.230;2024-02-26T06:21:37;16.27;;;7.47;;
8580;SDS011;4328;48.622;9.230;2024-02-26T06:24:04;12.87;;;6.83;;
8580;SDS011;4328;48.622;9.230;2024-02-26T06:26:31;14.13;;;6.83;;
8580;SDS011;4328;48.622;9.230;2024-02-26T06:28:58;9.47;;;6.23;;
8580;SDS011;4328;48.622;9.230;2024-02-26T06:31:25;13.77;;;6.30;;
8580;SDS011;4328;48.622;9.230;2024-02-26T06:33:52;12.57;;;5.90;;
8580;SDS011;4328;48.622;9.230;2024-02-26T06:36:19;15.03;;;6.10;;
8580;SDS011;4328;48.622;9.230;2024-02-26T06:38:47;14.50;;;6.83;;
8580;SDS011;4328;48.622;9.230;2024-02-26T06:41:14;8.90;;;5.07;;
8580;SDS011;4328;48.622;9.230;2024-02-26T06:43:40;27.07;;;8.00;;
8580;SDS011;4328;48.622;9.230;2024-02-26T06:46:07;8.23;;;5.60;;
8580;SDS011;4328;48.622;9.230;2024-02-26T06:48:33;13.40;;;7.63;;
8580;SDS011;4328;48.622;9.230;2024-02-26T06:51:02;11.43;;;6.57;;
8580;SDS011;4328;48.622;9.230;2024-02-26T06:53:28;8.70;;;6.97;;
8580;SDS011;4328;48.622;9.230;2024-02-26T06:55:56;18.70;;;8.07;;
8580;SDS011;4328;48.622;9.230;2024-02-26T06:58:23;14.03;;;9.47;;
8580;SDS011;4328;48.622;9.230;2024-02-26T07:00:49;19.40;;;9.67;;
8580;SDS011;4328;48.622;9.230;2024-02-26T07:03:16;17.00;;;8.63;;
8580;SDS011;4328;48.622;9.230;2024-02-26T07:05:42;13.43;;;9.20;;
8580;SDS011;4328;48.622;9.230;2024-02-26T07:08:10;12.73;;;9.20;;
8580;SDS011;4328;48.622;9.230;2024-02-26T07:10:36;13.00;;;9.03;;
8580;SDS011;4328;48.622;9.230;2024-02-26T07:13:04;15.07;;;9.50;;
8580;SDS011;4328;48.622;9.230;2024-02-26T07:15:31;18.30;;;9.40;;
8580;SDS011;4328;48.622;9.230;2024-02-26T07:17:58;14.33;;;10.30;;
8580;SDS011;4328;48.622;9.230;2024-02-26T07:20:28;13.93;;;8.80;;
8580;SDS011;4328;48.622;9.230;2024-02-26T07:22:54;15.03;;;8.37;;
8580;SDS011;4328;48.622;9.230;2024-02-26T07:25:21;13.27;;;6.97;;
8580;SDS011;4328;48.622;9.230;2024-02-26T07:27:49;10.47;;;7.17;;
8580;SDS011;4328;48.622;9.230;2024-02-26T07:30:17;13.03;;;6.80;;
8580;SDS011;4328;48.622;9.230;2024-02-26T07:32:43;13.17;;;8.17;;
8580;SDS011;4328;48.622;9.230;2024-02-26T07:35:10;15.30;;;9.20;;
8580;SDS011;4328;48.622;9.230;2024-02-26T07:37:37;15.97;;;9.60;;
8580;SDS011;4328;48.622;9.230;2024-02-26T07:40:04;13.10;;;9.57;;
8580;SDS011;4328;48.622;9.230;2024-02-26T07:42:33;16.13;;;11.57;;
8580;SDS011;4328;48.622;9.230;2024-02-26T07:44:59;14.23;;;10.50;;
8580;SDS011;4328;48.622;9.230;2024-02-26T07:47:27;9.63;;;8.53;;
8580;SDS011;4328;48.622;9.230;2024-02-26T07:49:54;13.13;;;10.60;;
8580;SDS011;4328;48.622;9.230;2024-02-26T07:52:21;13.07;;;9.83;;
8580;SDS011;4328;48.622;9.230;2024-02-26T07:54:48;18.93;;;10.57;;
8580;SDS011;4328;48.622;9.230;2024-02-26T07:57:14;19.60;;;10.53;;
8580;SDS011;4328;48.622;9.230;2024-02-26T07:59:42;17.87;;;9.40;;
8580;SDS011;4328;48.622;9.230;2024-02-26T08:02:09;14.10;;;9.70;;
8580;SDS011;4328;48.622;9.230;2024-02-26T08:04:37;14.57;;;10.57;;
8580;SDS011;4328;48.622;9.230;2024-02-26T08:07:04;17.30;;;10.73;;
8580;SDS011;4328;48.622;9.230;2024-02-26T08:09:31;14.60;;;8.53;;
8580;SDS011;4328;48.622;9.230;2024-02-26T08:11:57;13.47;;;7.10;;
8580;SDS011;4328;48.622;9.230;2024-02-26T08:14:24;14.33;;;8.07;;
8580;SDS011;4328;48.622;9.230;2024-02-26T08:16:50;16.10;;;9.07;;
8580;SDS011;4328;48.622;9.230;2024-02-26T08:19:17;17.40;;;9.87;;
8580;SDS011;4328;48.622;9.230;2024-02-26T08:21:45;15.03;;;9.77;;
8580;SDS011;4328;48.622;9.230;2024-02-26T08:24:11;16.73;;;9.67;;
8580;SDS011;4328;48.622;9.230;2024-02-26T08:26:38;16.23;;;10.50;;
8580;SDS011;4328;48.622;9.230;2024-02-26T08:29:04;16.27;;;9.70;;
8580;SDS011;4328;48.622;9.230;2024-02-26T08:31:31;8.83;;;8.13;;
8580;SDS011;4328;48.622;9.230;2024-02-26T08:33:58;11.53;;;10.43;;
8580;SDS011;4328;48.622;9.230;2024-02-26T08:36:25;14.93;;;9.77;;
8580;SDS011;4328;48.622;9.230;2024-02-26T08:38:53;17.37;;;11.57;;
8580;SDS011;4328;48.622;9.230;2024-02-26T08:41:20;17.00;;;11.50;;
8580;SDS011;4328;48.622;9.230;2024-02-26T08:43:46;17.63;;;11.27;;
8580;SDS011;4328;48.622;9.230;2024-02-26T08:46:13;18.73;;;11.83;;
8580;SDS011;4328;48.622;9.230;2024-02-26T08:48:39;13.13;;;11.20;;
8580;SDS011;4328;48.622;9.230;2024-02-26T08:51:06;12.57;;;11.07;;
8580;SDS011;4328;48.622;9.230;2024-02-26T08:53:33;15.43;;;11.53;;
8580;SDS011;4328;48.622;9.230;2024-02-26T08:56:02;14.73;;;10.70;;
8580;SDS011;4328;48.622;9.230;2024-02-26T08:58:28;16.83;;;11.07;;
8580;SDS011;4328;48.622;9.230;2024-02-26T09:00:55;15.37;;;11.50;;
8580;SDS011;4328;48.622;9.230;2024-02-26T09:03:22;14.90;;;12.40;;
8580;SDS011;4328;48.622;9.230;2024-02-26T09:05:49;11.20;;;10.10;;
8580;SDS011;4328;48.622;9.230;2024-02-26T09:08:15;18.67;;;11.07;;
8580;SDS011;4328;48.622;9.230;2024-02-26T09:10:42;10.00;;;8.93;;
8580;SDS011;4328;48.622;9.230;2024-02-26T09:13:10;11.13;;;9.77;;
8580;SDS011;4328;48.622;9.230;2024-02-26T09:15:36;18.43;;;11.70;;
8580;SDS011;4328;48.622;9.230;2024-02-26T09:18:03;17.70;;;10.40;;
8580;SDS011;4328;48.622;9.230;2024-02-26T09:20:30;17.77;;;10.17;;
8580;SDS011;4328;48.622;9.230;2024-02-26T09:22:56;16.27;;;9.43;;
8580;SDS011;4328;48.622;9.230;2024-02-26T09:25:23;15.63;;;10.57;;
8580;SDS011;4328;48.622;9.230;2024-02-26T09:27:49;16.23;;;11.50;;
8580;SDS011;4328;48.622;9.230;2024-02-26T09:30:18;16.43;;;12.20;;
8580;SDS011;4328;48.622;9.230;2024-02-26T09:32:45;14.20;;;8.87;;
8580;SDS011;4328;48.622;9.230;2024-02-26T09:35:13;15.87;;;9.30;;
8580;SDS011;4328;48.622;9.230;2024-02-26T09:37:39;15.83;;;11.03;;
8580;SDS011;4328;48.622;9.230;2024-02-26T09:40:08;16.33;;;9.73;;
8580;SDS011;4328;48.622;9.230;2024-02-26T09:42:37;12.20;;;9.93;;
8580;SDS011;4328;48.622;9.230;2024-02-26T09:45:08;20.63;;;11.63;;
8580;SDS011;4328;48.622;9.230;2024-02-26T09:47:39;16.03;;;11.60;;
8580;SDS011;4328;48.622;9.230;2024-02-26T09:50:08;13.43;;;12.33;;
8580;SDS011;4328;48.622;9.230;2024-02-26T09:52:37;20.13;;;15.97;;
8580;SDS011;4328;48.622;9.230;2024-02-26T09:55:04;17.27;;;15.80;;
8580;SDS011;4328;48.622;9.230;2024-02-26T09:57:31;16.23;;;14.53;;
8580;SDS011;4328;48.622;9.230;2024-02-26T09:59:59;16.83;;;15.33;;
8580;SDS011;4328;48.622;9.230;2024-02-26T10:02:32;18.53;;;17.03;;
8580;SDS011;4328;48.622;9.230;2024-02-26T10:05:02;29.10;;;27.20;;
8580;SDS011;4328;48.622;9.230;2024-02-26T10:07:30;41.87;;;39.03;;
8580;SDS011;4328;48.622;9.230;2024-02-26T10:09:57;103.93;;;98.70;;
8580;SDS011;4328;48.622;9.230;2024-02-26T10:12:24;120.13;;;113.80;;
8580;SDS011;4328;48.622;9.230;2024-02-26T10:14:53;118.73;;;113.13;;
8580;SDS011;4328;48.622;9.230;2024-02-26T10:17:19;122.57;;;116.13;;
8580;SDS011;4328;48.622;9.230;2024-02-26T10:19:46;111.97;;;106.20;;
8580;SDS011;4328;48.622;9.230;2024-02-26T10:22:14;100.67;;;94.97;;
8580;SDS011;4328;48.622;9.230;2024-02-26T10:24:40;94.07;;;89.40;;
8580;SDS011;4328;48.622;9.230;2024-02-26T10:27:07;105.93;;;100.43;;
8580;SDS011;4328;48.622;9.230;2024-02-26T10:29:34;95.93;;;90.77;;
8580;SDS011;4328;48.622;9.230;2024-02-26T10:32:01;88.77;;;84.77;;
8580;SDS011;4328;48.622;9.230;2024-02-26T10:34:28;91.10;;;86.50;;
8580;SDS011;4328;48.622;9.230;2024-02-26T10:36:54;83.33;;;78.73;;
8580;SDS011;4328;48.622;9.230;2024-02-26T10:39:22;77.73;;;73.07;;
8580;SDS011;4328;48.622;9.230;2024-02-26T10:41:49;71.17;;;67.20;;
8580;SDS011;4328;48.622;9.230;2024-02-26T10:44:16;68.23;;;64.33;;
8580;SDS011;4328;48.622;9.230;2024-02-26T10:46:42;63.33;;;59.43;;
8580;SDS011;4328;48.622;9.230;2024-02-26T10:49:13;63.00;;;59.03;;
8580;SDS011;4328;48.622;9.230;2024-02-26T10:51:43;57.07;;;53.20;;
8580;SDS011;4328;48.622;9.230;2024-02-26T10:54:12;56.43;;;53.30;;
8580;SDS011;4328;48.622;9.230;2024-02-26T10:56:42;54.30;;;51.53;;
8580;SDS011;4328;48.622;9.230;2024-02-26T10:59:11;54.80;;;51.70;;
8580;SDS011;4328;48.622;9.230;2024-02-26T11:01:38;53.20;;;50.07;;
8580;SDS011;4328;48.622;9.230;2024-02-26T11:04:06;61.53;;;58.10;;
8580;SDS011;4328;48.622;9.230;2024-02-26T11:06:34;67.13;;;62.80;;
8580;SDS011;4328;48.622;9.230;2024-02-26T11:09:01;68.53;;;64.50;;
8580;SDS011;4328;48.622;9.230;2024-02-26T11:11:28;78.20;;;73.77;;
8580;SDS011;4328;48.622;9.230;2024-02-26T11:13:57;91.30;;;86.43;;
8580;SDS011;4328;48.622;9.230;2024-02-26T11:16:27;100.77;;;95.90;;
8580;SDS011;4328;48.622;9.230;2024-02-26T11:18:55;111.07;;;105.67;;
8580;SDS011;4328;48.622;9.230;2024-02-26T11:21:23;103.17;;;98.23;;
8580;SDS011;4328;48.622;9.230;2024-02-26T11:23:55;105.27;;;100.10;;
8580;SDS011;4328;48.622;9.230;2024-02-26T11:26:22;100.30;;;94.93;;
8580;SDS011;4328;48.622;9.230;2024-02-26T11:28:50;105.20;;;100.43;;
8580;SDS011;4328;48.622;9.230;2024-02-26T11:31:19;108.27;;;103.10;;
8580;SDS011;4328;48.622;9.230;2024-02-26T11:33:52;106.80;;;102.27;;
8580;SDS011;4328;48.622;9.230;2024-02-26T11:36:19;104.63;;;99.47;;
8580;SDS011;4328;48.622;9.230;2024-02-26T11:38:46;97.53;;;92.37;;
8580;SDS011;4328;48.622;9.230;2024-02-26T11:41:16;95.73;;;90.90;;
8580;SDS011;4328;48.622;9.230;2024-02-26T11:43:50;106.77;;;101.23;;
8580;SDS011;4328;48.622;9.230;2024-02-26T11:51:58;110.23;;;104.83;;
8580;SDS011;4328;48.622;9.230;2024-02-26T11:54:45;115.47;;;109.87;;
8580;SDS011;4328;48.622;9.230;2024-02-26T11:57:25;125.37;;;118.97;;
8580;SDS011;4328;48.622;9.230;2024-02-26T11:59:53;129.67;;;123.37;;
8580;SDS011;4328;48.622;9.230;2024-02-26T12:02:41;138.20;;;131.33;;
8580;SDS011;4328;48.622;9.230;2024-02-26T12:05:11;136.43;;;129.73;;
8580;SDS011;4328;48.622;9.230;2024-02-26T12:07:42;155.50;;;147.50;;
8580;SDS011;4328;48.622;9.230;2024-02-26T12:10:21;170.10;;;161.20;;
8580;SDS011;4328;48.622;9.230;2024-02-26T12:12:54;197.83;;;187.23;;
8580;SDS011;4328;48.622;9.230;2024-02-26T12:15:29;195.23;;;184.83;;
8580;SDS011;4328;48.622;9.230;2024-02-26T12:17:59;214.07;;;202.60;;
8580;SDS011;4328;48.622;9.230;2024-02-26T12:20:27;195.63;;;185.43;;
8580;SDS011;4328;48.622;9.230;2024-02-26T12:22:54;193.77;;;183.00;;
8580;SDS011;4328;48.622;9.230;2024-02-26T12:25:23;186.40;;;176.03;;
8580;SDS011;4328;48.622;9.230;2024-02-26T12:27:51;183.67;;;173.13;;
8580;SDS011;4328;48.622;9.230;2024-02-26T12:30:18;167.80;;;158.63;;
8580;SDS011;4328;48.622;9.230;2024-02-26T12:32:45;157.60;;;148.60;;
8580;SDS011;4328;48.622;9.230;2024-02-26T12:35:13;151.17;;;143.37;;
8580;SDS011;4328;48.622;9.230;2024-02-26T12:37:40;153.93;;;145.57;;
8580;SDS011;4328;48.622;9.230;2024-02-26T12:40:08;137.90;;;130.83;;
8580;SDS011;4328;48.622;9.230;2024-02-26T12:42:36;149.37;;;141.63;;
8580;SDS011;4328;48.622;9.230;2024-02-26T12:45:05;157.17;;;149.00;;
8580;SDS011;4328;48.622;9.230;2024-02-26T12:47:37;154.30;;;146.43;;
8580;SDS011;4328;48.622;9.230;2024-02-26T12:50:05;147.73;;;139.97;;
8580;SDS011;4328;48.622;9.230;2024-02-26T12:52:34;156.83;;;148.30;;
8580;SDS011;4328;48.622;9.230;2024-02-26T12:55:02;155.30;;;147.00;;
8580;SDS011;4328;48.622;9.230;2024-02-26T12:57:29;149.87;;;140.73;;
8580;SDS011;4328;48.622;9.230;2024-02-26T12:59:57;134.93;;;127.83;;
8580;SDS011;4328;48.622;9.230;2024-02-26T13:02:25;127.83;;;120.97;;
8580;SDS011;4328;48.622;9.230;2024-02-26T13:04:52;121.13;;;114.97;;
8580;SDS011;4328;48.622;9.230;2024-02-26T13:07:19;120.57;;;114.50;;
8580;SDS011;4328;48.622;9.230;2024-02-26T13:09:48;116.83;;;110.90;;
8580;SDS011;4328;48.622;9.230;2024-02-26T13:12:15;113.37;;;107.53;;
8580;SDS011;4328;48.622;9.230;2024-02-26T13:14:42;116.03;;;109.83;;
8580;SDS011;4328;48.622;9.230;2024-02-26T13:17:09;112.23;;;106.47;;
8580;SDS011;4328;48.622;9.230;2024-02-26T13:19:36;113.57;;;107.50;;
8580;SDS011;4328;48.622;9.230;2024-02-26T13:22:03;96.03;;;90.80;;
8580;SDS011;4328;48.622;9.230;2024-02-26T13:24:31;87.57;;;83.00;;
8580;SDS011;4328;48.622;9.230;2024-02-26T13:26:59;97.40;;;92.50;;
8580;SDS011;4328;48.622;9.230;2024-02-26T13:29:26;85.60;;;81.07;;
8580;SDS011;4328;48.622;9.230;2024-02-26T13:31:55;73.97;;;70.07;;
8580;SDS011;4328;48.622;9.230;2024-02-26T13:34:23;69.80;;;65.87;;
8580;SDS011;4328;48.622;9.230;2024-02-26T13:36:51;63.80;;;59.73;;
8580;SDS011;4328;48.622;9.230;2024-02-26T13:39:21;55.83;;;52.53;;
8580;SDS011;4328;48.622;9.230;2024-02-26T13:41:49;54.60;;;51.40;;
8580;SDS011;4328;48.622;9.230;2024-02-26T13:44:18;52.17;;;49.07;;
8580;SDS011;4328;48.622;9.230;2024-02-26T13:46:45;57.07;;;53.53;;
8580;SDS011;4328;48.622;9.230;2024-02-26T13:49:11;66.57;;;62.33;;
8580;SDS011;4328;48.622;9.230;2024-02-26T13:51:38;66.47;;;62.63;;
8580;SDS011;4328;48.622;9.230;2024-02-26T13:54:04;68.90;;;65.37;;
8580;SDS011;4328;48.622;9.230;2024-02-26T13:56:32;73.87;;;69.33;;
8580;SDS011;4328;48.622;9.230;2024-02-26T13:58:59;74.03;;;69.87;;
8580;SDS011;4328;48.622;9.230;2024-02-26T14:01:27;74.37;;;70.30;;
8580;SDS011;4328;48.622;9.230;2024-02-26T14:03:53;76.87;;;72.63;;
8580;SDS011;4328;48.622;9.230;2024-02-26T14:06:22;99.27;;;93.97;;
8580;SDS011;4328;48.622;9.230;2024-02-26T14:08:49;110.97;;;105.67;;
8580;SDS011;4328;48.622;9.230;2024-02-26T14:11:15;120.27;;;113.73;;
8580;SDS011;4328;48.622;9.230;2024-02-26T14:13:42;102.30;;;96.80;;
8580;SDS011;4328;48.622;9.230;2024-02-26T14:16:09;107.83;;;102.40;;
8580;SDS011;4328;48.622;9.230;2024-02-26T14:18:38;106.67;;;101.30;;
8580;SDS011;4328;48.622;9.230;2024-02-26T14:21:05;120.37;;;114.83;;
8580;SDS011;4328;48.622;9.230;2024-02-26T14:23:32;123.10;;;116.73;;
8580;SDS011;4328;48.622;9.230;2024-02-26T14:25:59;139.47;;;131.90;;
8580;SDS011;4328;48.622;9.230;2024-02-26T14:28:26;149.10;;;141.23;;
8580;SDS011;4328;48.622;9.230;2024-02-26T14:30:54;154.70;;;146.30;;
8580;SDS011;4328;48.622;9.230;2024-02-26T14:33:21;152.93;;;144.67;;
8580;SDS011;4328;48.622;9.230;2024-02-26T14:35:48;165.00;;;156.37;;
8580;SDS011;4328;48.622;9.230;2024-02-26T14:38:15;138.30;;;130.93;;
8580;SDS011;4328;48.622;9.230;2024-02-26T14:40:41;126.30;;;119.63;;
8580;SDS011;4328;48.622;9.230;2024-02-26T14:43:08;126.03;;;119.57;;
8580;SDS011;4328;48.622;9.230;2024-02-26T14:45:35;106.83;;;101.03;;
8580;SDS011;4328;48.622;9.230;2024-02-26T14:48:03;119.63;;;113.40;;
8580;SDS011;4328;48.622;9.230;2024-02-26T14:50:31;108.83;;;102.97;;
8580;SDS011;4328;48.622;9.230;2024-02-26T14:52:59;110.27;;;104.47;;
8580;SDS011;4328;48.622;9.230;2024-02-26T14:55:27;91.97;;;87.23;;
8580;SDS011;4328;48.622;9.230;2024-02-26T14:57:54;85.00;;;80.50;;